Nearby METAR Reports
LFBA - Agen,(47)Lot-et-Garonne
Mise à jour: Thu, 24-Aug-2017 12:00 CEST
Claire
Claire
 Wind from SSE
Vent: SSE 6 km/h
Température: 26°C
Point de Rosée: 20°C
Humidité: 70%
Barometre: 1016 hPa
Visibilité: Supérieure à  10 km
2017/08/24 10:00 LFBA 241000Z AUTO 16003KT 100V220 CAVOK 26/20 Q1016 NOSIG
LFKJ - Ajaccio,(2A)Corse-du-Sud
Mise à jour: Thu, 24-Aug-2017 12:00 CEST
Claire
Claire
 Wind from SW
Vent: SW 15 km/h
Température: 28°C
Humidex: 28°C
Point de Rosée: 17°C
Humidité: 51%
Barometre: 1019 hPa
Visibilité: Supérieure à  10 km
2017/08/24 10:00 LFKJ 241000Z 23008KT CAVOK 28/17 Q1019 NOSIG
LFLP - Annecy,(74)Haute-Savoie
Mise à jour: Thu, 24-Aug-2017 12:00 CEST
Orageux
Orageux
 Wind from SSW
Vent: SSW 17 km/h
Température: 23°C
Point de Rosée: 17°C
Humidité: 69%
Barometre: 1021 hPa
Nuage: Orageux
Visibilité: 10 km
2017/08/24 10:00 LFLP 241000Z AUTO 20009KT 170V250 9999 ///CB 23/17 Q1021 TEMPO -TSRA
 
LFLW - Aurillac,(15)Cantal
Mise à jour: Thu, 24-Aug-2017 12:00 CEST

 Wind from varies
Vent: varies 4 km/h
Visibilité: 9 km
2017/08/24 10:00 LFLW 241000Z AUTO VRB02KT 9000 1400 R15/P2000 NSC 27/17 Q1019 NOSIG
LFOA - Avord,(18)Cher
Mise à jour: Thu, 24-Aug-2017 12:00 CEST
Claire
Claire
 Wind from ESE
Vent: ESE 13 km/h
Température: 25°C
Point de Rosée: 16°C
Humidité: 57%
Barometre: 1018 hPa
Visibilité: Supérieure à  10 km
2017/08/24 10:00 LFOA 241000Z AUTO 12007KT 090V150 CAVOK 25/16 Q1018 NOSIG
LFSB - Bale(CH)-Mulhouse,(68)Haut-Rhin
Mise à jour: Thu, 24-Aug-2017 12:00 CEST
Quelques nuages
Quelques nuages
 Wind from varies
Vent: varies 6 km/h
Température: 26°C
Point de Rosée: 18°C
Humidité: 61%
Barometre: 1018 hPa
Nuage: Quelques nuages
Visibilité: 10 km
2017/08/24 10:00 LFSB 241000Z VRB03KT 9999 FEW030 26/18 Q1018 NOSIG
 
LFKB - Bastia,(2B)Haute-Corse
Mise à jour: Thu, 24-Aug-2017 12:00 CEST
Nuageux
Nuageux
 Wind from SE
Vent: SE 13 km/h
Température: 27°C
Humidex: 29°C
Point de Rosée: 20°C
Humidité: 66%
Barometre: 1020 hPa
Nuage: Nuageux
Visibilité: 10 km
2017/08/24 10:00 LFKB 241000Z 13007KT 090V170 9999 FEW023 BKN210 27/20 Q1020 NOSIG
LFOB - Beauvais,(60)Oise
Mise à jour: Thu, 24-Aug-2017 12:00 CEST
Nuageux
Nuageux
 Wind from varies
Vent: varies 6 km/h
Température: 21°C
Point de Rosée: 14°C
Humidité: 64%
Barometre: 1019 hPa
Nuage: Nuageux
Visibilité: 10 km
2017/08/24 10:00 LFOB 241000Z AUTO VRB03KT 9999 SCT024 SCT029 BKN047 21/14 Q1019 NOSIG
LFBE - Bergerac,(24)Dordogne
Mise à jour: Thu, 24-Aug-2017 12:00 CEST
Claire
Claire
 Wind from calm
Vent: Calm
Température: 28°C
Humidex: 29°C
Point de Rosée: 19°C
Humidité: 58%
Barometre: 1016 hPa
Visibilité: Supérieure à  10 km
2017/08/24 10:00 LFBE 241000Z AUTO 00000KT CAVOK 28/19 Q1016 NOSIG
 
LFMU - Beziers, Vias,(34)Hérault
Mise à jour: Thu, 24-Aug-2017 12:00 CEST
Couvert
Couvert
 Wind from E
Vent: E 24 km/h
Température: 23°C
Point de Rosée: 21°C
Humidité: 89%
Barometre: 1018 hPa
Nuage: Couvert
Visibilité: 9 km
2017/08/24 10:00 LFMU 241000Z AUTO 08013KT 9000 OVC005 23/21 Q1018 BECMG FEW013
LFBZ - Biarritz,(64)Pyrénées-Atlantiques
Mise à jour: Thu, 24-Aug-2017 12:00 CEST
Couvert
Couvert
 Wind from ENE
Vent: ENE 9 km/h
Température: 23°C
Point de Rosée: 18°C
Humidité: 74%
Barometre: 1017 hPa
Nuage: Couvert
Visibilité: 10 km
2017/08/24 10:00 LFBZ 241000Z AUTO 06005KT 010V100 9999 OVC024 23/18 Q1017 NOSIG
LFBD - Bordeaux , Merignac,(33)Gironde
Mise à jour: Thu, 24-Aug-2017 12:00 CEST
Claire
Claire
 Wind from varies
Vent: varies 2 km/h
Température: 26°C
Point de Rosée: 17°C
Humidité: 58%
Barometre: 1016 hPa
Visibilité: Supérieure à  10 km
2017/08/24 10:00 LFBD 241000Z AUTO VRB01KT CAVOK 26/17 Q1016 NOSIG
 
LFAQ - Bray,(80)Somme
Mise à jour: Thu, 24-Aug-2017 12:00 CEST
Nuageux
Nuageux
 Wind from WNW
Vent: WNW 11 km/h
Température: 20°C
Point de Rosée: 14°C
Humidité: 69%
Barometre: 1018 hPa
Nuage: Nuageux
Visibilité: 10 km
2017/08/24 10:00 LFAQ 241000Z AUTO 30006KT 250V350 9999 SCT022 BKN029 20/14 Q1018 NOSIG
LFRB - Brest,(29)Finistère
Mise à jour: Thu, 24-Aug-2017 12:00 CEST
Nuageux
Nuageux
 Wind from varies
Vent: varies 2 km/h
Température: 19°C
Point de Rosée: 14°C
Humidité: 73%
Barometre: 1019 hPa
Nuage: Nuageux
Visibilité: 10 km
2017/08/24 10:00 LFRB 241000Z AUTO VRB01KT 9999 FEW023 BKN035 19/14 Q1019 NOSIG
LFBU - Brie,Champniers,(16)Charente
Mise à jour: Thu, 24-Aug-2017 12:00 CEST
Claire
Claire
 Wind from varies
Vent: varies 6 km/h
Température: 27°C
Humidex: 28°C
Point de Rosée: 17°C
Humidité: 54%
Barometre: 1016 hPa
Visibilité: Supérieure à  10 km
2017/08/24 10:00 LFBU 241000Z AUTO VRB03KT CAVOK 27/17 Q1016 NOSIG
 
LFSL - Brive (19), Souillac(46),Corrèze Lot
Mise à jour: Thu, 24-Aug-2017 12:00 CEST
Claire
Claire
 Wind from varies
Vent: varies 4 km/h
Température: 28°C
Humidex: 28°C
Point de Rosée: 17°C
Humidité: 51%
Barometre: 1017 hPa
Visibilité: Supérieure à  10 km
2017/08/24 10:00 LFSL 241000Z AUTO VRB02KT CAVOK 28/17 Q1017 NOSIG
LFRK - Caen,(14)Calvados
Mise à jour: Thu, 24-Aug-2017 12:00 CEST
Nuageux
Nuageux
 Wind from W
Vent: W 11 km/h
Température: 20°C
Point de Rosée: 13°C
Humidité: 64%
Barometre: 1019 hPa
Nuage: Nuageux
Visibilité: 10 km
2017/08/24 10:00 LFRK 241000Z AUTO 28006KT 9999 SCT027 SCT034 BKN040 20/13 Q1019 NOSIG
LFKC - Calvi,(2B)Haute-Corse
Mise à jour: Thu, 24-Aug-2017 12:00 CEST
Claire
Claire
 Wind from NNW
Vent: NNW 17 km/h
Température: 27°C
Humidex: 28°C
Point de Rosée: 19°C
Humidité: 62%
Barometre: 1020 hPa
Visibilité: Supérieure à  10 km
2017/08/24 10:00 LFKC 241000Z AUTO 34009KT 300V020 CAVOK 27/19 Q1020 NOSIG
 
LFMD - Cannes,(06)Alpes-Maritimes
Mise à jour: Thu, 24-Aug-2017 12:00 CEST
Claire
Claire
 Wind from SE
Vent: SE 13 km/h
Température: 26°C
Point de Rosée: 19°C
Humidité: 65%
Barometre: 1019 hPa
Visibilité: Supérieure à  10 km
2017/08/24 10:00 LFMD 241000Z AUTO 14007KT 100V180 CAVOK 26/19 Q1019 NOSIG
LFMK - Carcassonne,(11)Aude
Mise à jour: Thu, 24-Aug-2017 12:00 CEST
Nuageux
Nuageux
 Wind from E
Vent: E 22 km/h
Température: 27°C
Humidex: 29°C
Point de Rosée: 20°C
Humidité: 66%
Barometre: 1018 hPa
Nuage: Nuageux
Visibilité: 10 km
2017/08/24 10:00 LFMK 241000Z AUTO 10012KT 080V150 9999 BKN021 27/20 Q1018 TEMPO BKN007
LFCK - Castre-Mazamet,(81)Tarn
Mise à jour: Thu, 24-Aug-2017 12:00 CEST
Claire
Claire
 Wind from varies
Vent: varies 4 km/h
Température: 28°C
Humidex: 29°C
Point de Rosée: 19°C
Humidité: 58%
Barometre: 1018 hPa
Visibilité: Supérieure à  10 km
2017/08/24 10:00 LFCK 241000Z AUTO VRB02KT CAVOK 28/19 Q1018 NOSIG
 
LFMV - Avignon/Caumont,(84) Vaucluse
Mise à jour: Thu, 24-Aug-2017 12:00 CEST
Nuageux
Nuageux
 Wind from SSE
Vent: SSE 7 km/h
Température: 26°C
Point de Rosée: 18°C
Humidité: 61%
Barometre: 1019 hPa
Nuage: Nuageux
Visibilité: 10 km
2017/08/24 10:00 LFMV 241000Z AUTO 16004KT 090V200 9999 FEW050 BKN130 BKN160 26/18 Q1019 BECMG SCT030CB BKN090
LFBC - Cazaux, (33)Gironde
Mise à jour: Thu, 24-Aug-2017 12:00 CEST
Claire
Claire
 Wind from WSW
Vent: WSW 9 km/h
Température: 24°C
Point de Rosée: 18°C
Humidité: 69%
Barometre: 1016 hPa
Visibilité: Supérieure à  10 km
2017/08/24 10:00 LFBC 241000Z AUTO 24005KT 210V270 CAVOK 24/18 Q1016 NOSIG
LFOK - Chalon,Vatry,(51)Marne
Mise à jour: Thu, 24-Aug-2017 12:00 CEST
Claire
Claire
 Wind from varies
Vent: varies 6 km/h
Température: 22°C
Point de Rosée: 13°C
Humidité: 57%
Barometre: 1019 hPa
Visibilité: Supérieure à  10 km
2017/08/24 10:00 LFOK 241000Z AUTO VRB03KT CAVOK 22/13 Q1019 NOSIG
 
LFLB - Chambery,Aix Bai,(73)Savoie
Mise à jour: Thu, 24-Aug-2017 12:00 CEST

 Wind from ENE
Vent: ENE 9 km/h
Visibilité: 8 km
2017/08/24 10:00 LFLB 241000Z AUTO 06005KT 020V090 8000 2300 +TSRA FEW032/// BKN074/// BKN088/// ///CB 22/19 Q1020 TEMPO 18015G25KT -TSRA
LFOC - Chateaudun,(28)Eure-et-Loir
Mise à jour: Thu, 24-Aug-2017 12:00 CEST
Couvert
Couvert
 Wind from E
Vent: E 11 km/h
Température: 20°C
Point de Rosée: 14°C
Humidité: 69%
Barometre: 1019 hPa
Nuage: Couvert
Visibilité: 10 km
2017/08/24 10:00 LFOC 241000Z AUTO 09006KT 040V110 9999 BKN029 OVC150 20/14 Q1019 NOSIG
LFLX - Chateauroux,(36)Indre
Mise à jour: Thu, 24-Aug-2017 12:00 CEST
Claire
Claire
 Wind from E
Vent: E 15 km/h
Température: 27°C
Humidex: 28°C
Point de Rosée: 17°C
Humidité: 54%
Barometre: 1017 hPa
Visibilité: Supérieure à  10 km
2017/08/24 10:00 LFLX 241000Z AUTO 09008KT 070V140 CAVOK 27/17 Q1017 NOSIG
 
LFRC - Cherbourg , Maupertus,(50)Manche
Mise à jour: Thu, 24-Aug-2017 12:00 CEST
Nuageux
Nuageux
 Wind from W
Vent: W 13 km/h
Température: 17°C
Point de Rosée: 14°C
Humidité: 83%
Barometre: 1019 hPa
Nuage: Nuageux
Visibilité: 10 km
2017/08/24 10:00 LFRC 241000Z AUTO 27007KT 9999 BKN012 BKN041 BKN170 17/14 Q1019 BECMG SCT020
LFLC - Clermont-Ferrand,(63)Puy-de-Dôme
Mise à jour: Thu, 24-Aug-2017 12:00 CEST
Claire
Claire
 Wind from varies
Vent: varies 2 km/h
Température: 24°C
Point de Rosée: 16°C
Humidité: 61%
Barometre: 1018 hPa
Visibilité: Supérieure à  10 km
2017/08/24 10:00 LFLC 241000Z AUTO VRB01KT CAVOK 24/16 Q1018 NOSIG
LFBG - Cognac,(16)Charente
Mise à jour: Thu, 24-Aug-2017 12:00 CEST
Claire
Claire
 Wind from varies
Vent: varies 2 km/h
Température: 26°C
Point de Rosée: 17°C
Humidité: 58%
Barometre: 1016 hPa
Visibilité: Supérieure à  10 km
2017/08/24 10:00 LFBG 241000Z AUTO VRB01KT CAVOK 26/17 Q1016 NOSIG
 
LFGA - Colmar,(68)Haut-Rhin
Mise à jour: Thu, 24-Aug-2017 12:00 CEST
Partiellement nuageux
Partiellement nuageux
 Wind from varies
Vent: varies 7 km/h
Température: 25°C
Point de Rosée: 17°C
Humidité: 61%
Barometre: 1018 hPa
Nuage: Partiellement nuageux
Visibilité: 10 km
2017/08/24 10:00 LFGA 241000Z AUTO VRB04KT 9999 FEW029 SCT160 25/17 Q1018
LFPT - Cormeilles Vexin,(95)Val-d Oise
Mise à jour: Thu, 24-Aug-2017 12:00 CEST
Nuageux
Nuageux
 Wind from varies
Vent: varies 2 km/h
Température: 19°C
Point de Rosée: 13°C
Humidité: 68%
Barometre: 1019 hPa
Nuage: Nuageux
Visibilité: 10 km
2017/08/24 10:00 LFPT 241000Z AUTO VRB01KT 9999 FEW020 BKN050 19/13 Q1019
LFPC - Creil Fafb,(60)Oise
Mise à jour: Thu, 01-Sep-2016 05:00 CEST
Pas Actualisé
Claire
Claire
 Wind from WNW
Vent: WNW 7 km/h
Température: 24°C
Point de Rosée: 13°C
Humidité: 50%
Barometre: 1023 hPa
Visibilité: Supérieure à  10 km
2016/09/01 15:00 LFPC 011500Z AUTO 30004KT 240V350 CAVOK 24/13 Q1023
 
LFBY - Dax,(40)Landes
Mise à jour: Thu, 24-Aug-2017 12:00 CEST

 Wind from varies
Vent: varies 2 km/h
Température: 24°C
Point de Rosée: 19°C
Humidité: 74%
Barometre: 1016 hPa
2017/08/24 10:00 LFBY 241000Z AUTO VRB01KT //// // ////// 24/19 Q1016
LFRG - Deauville/Saint-Gatien,(14)Calvados
Mise à jour: Thu, 24-Aug-2017 12:00 CEST
Partiellement nuageux
Partiellement nuageux
 Wind from W
Vent: W 7 km/h
Température: 20°C
Point de Rosée: 13°C
Humidité: 64%
Barometre: 1019 hPa
Nuage: Partiellement nuageux
Visibilité: 10 km
2017/08/24 10:00 LFRG 241000Z AUTO 27004KT 220V320 9999 SCT024 20/13 Q1019 NOSIG
LFSD - Dijon,(31)Côte-d Or
Mise à jour: Thu, 24-Aug-2017 12:00 CEST
Nuageux
Nuageux
 Wind from varies
Vent: varies 6 km/h
Température: 26°C
Point de Rosée: 17°C
Humidité: 58%
Barometre: 1018 hPa
Nuage: Nuageux
Visibilité: 10 km
2017/08/24 10:00 LFSD 241000Z AUTO VRB03KT 9999 SCT026 BKN180 26/17 Q1018
 
LFRD - Dinard,(35)Ille-et-Vilaine
Mise à jour: Thu, 24-Aug-2017 12:00 CEST
Nuageux
Nuageux
 Wind from NNE
Vent: NNE 9 km/h
Température: 19°C
Point de Rosée: 14°C
Humidité: 73%
Barometre: 1019 hPa
Nuage: Nuageux
Visibilité: 10 km
2017/08/24 10:00 LFRD 241000Z AUTO 02005KT 340V080 9999 BKN036 19/14 Q1019 NOSIG
LFGJ - Dole-Tavaux,(39) Jura
Mise à jour: Thu, 24-Aug-2017 12:00 CEST
Claire
Claire
 Wind from WNW
Vent: WNW 7 km/h
Température: 25°C
Point de Rosée: 19°C
Humidité: 69%
Barometre: 1018 hPa
Visibilité: Supérieure à  10 km
2017/08/24 10:00 LFGJ 241000Z AUTO 29004KT 250V350 CAVOK 25/19 Q1018 TEMPO 4000 SHRA FEW050CB
FMCZ - Dzaoudzi-Pamandzi,(976)Mayotte
Mise à jour: Thu, 24-Aug-2017 12:00 CEST
Partiellement nuageux
Partiellement nuageux
 Wind from varies
Vent: varies 6 km/h
Température: 28°C
Humidex: 30°C
Point de Rosée: 22°C
Humidité: 70%
Barometre: 1014 hPa
Nuage: Partiellement nuageux
Visibilité: 10 km
2017/08/24 10:00 FMCZ 241000Z VRB03KT 9999 SCT023 28/22 Q1014 NOSIG
 
LFOE - Evreux,(27)Eure
Mise à jour: Thu, 24-Aug-2017 12:00 CEST
Couvert
Couvert
 Wind from varies
Vent: varies 2 km/h
Température: 20°C
Point de Rosée: 13°C
Humidité: 64%
Barometre: 1019 hPa
Nuage: Couvert
Visibilité: 10 km
2017/08/24 10:00 LFOE 241000Z AUTO VRB01KT 9999 BKN040 OVC048 20/13 Q1019
LFSG - EPINAL Mirecourt,(88)Vosges
Mise à jour: Thu, 24-Aug-2017 12:00 CEST

 Wind from varies
Vent: varies 6 km/h
2017/08/24 10:00 LFSG 241000Z AUTO VRB03KT //// R26///// // NSC 23/14 Q1019
LFKF - Figari,(2A)Corse-du-Sud
Mise à jour: Thu, 24-Aug-2017 12:00 CEST
Claire
Claire
 Wind from S
Vent: S 15 km/h
Température: 29°C
Humidex: 30°C
Point de Rosée: 19°C
Humidité: 55%
Barometre: 1019 hPa
Visibilité: Supérieure à  10 km
2017/08/24 10:00 LFKF 241000Z AUTO 19008KT 160V230 CAVOK 29/19 Q1019 NOSIG
 
LFLS - Grenoble , St. Geoirs,(38)Isère
Mise à jour: Thu, 24-Aug-2017 12:00 CEST
Orageux
Orageux
 Wind from varies
Vent: varies 2 km/h
Température: 23°C
Point de Rosée: 17°C
Humidité: 69%
Barometre: 1020 hPa
Nuage: Orageux
Visibilité: 10 km
2017/08/24 10:00 LFLS 241000Z AUTO VRB01KT 9999 ///TCU 23/17 Q1020 TEMPO SCT080CB BKN090
LFTH - Hyeres,(83)Var
Mise à jour: Thu, 24-Aug-2017 12:00 CEST
Claire
Claire
 Wind from ESE
Vent: ESE 17 km/h
Température: 25°C
Point de Rosée: 21°C
Humidité: 79%
Barometre: 1019 hPa
Visibilité: Supérieure à  10 km
2017/08/24 10:00 LFTH 241000Z AUTO 11009KT CAVOK 25/21 Q1019
LFMI - Istres,(13)Bouches-du-Rhône
Mise à jour: Thu, 24-Aug-2017 12:00 CEST
Claire
Claire
 Wind from SE
Vent: SE 13 km/h
Température: 27°C
Humidex: 28°C
Point de Rosée: 18°C
Humidité: 58%
Barometre: 1019 hPa
Visibilité: Supérieure à  10 km
2017/08/24 10:00 LFMI 241000Z AUTO 13007KT CAVOK 27/18 Q1019 TEMPO BKN016TCU
 
LFOH - La Heve,(76)Seine-Maritime
Mise à jour: Thu, 24-Aug-2017 12:00 CEST
Nuageux
Nuageux
 Wind from SW
Vent: SW 13 km/h
Température: 18°C
Point de Rosée: 15°C
Humidité: 83%
Barometre: 1019 hPa
Nuage: Nuageux
Visibilité: 10 km
2017/08/24 10:00 LFOH 241000Z AUTO 22007KT 190V260 9999 SCT010 BKN021 BKN030 18/15 Q1019 NOSIG
LFRI - La Roche-Sur-Yon,(85)Vendée
Mise à jour: Thu, 24-Aug-2017 12:00 CEST
Claire
Claire
 Wind from calm
Vent: Calm
Température: 21°C
Point de Rosée: 15°C
Humidité: 69%
Barometre: 1017 hPa
Visibilité: Supérieure à  10 km
2017/08/24 10:00 LFRI 241000Z AUTO 00000KT CAVOK 21/15 Q1017 NOSIG
LFBH - La Rochelle,(17)Charente-Maritime
Mise à jour: Thu, 24-Aug-2017 12:00 CEST
Claire
Claire
 Wind from WNW
Vent: WNW 9 km/h
Température: 21°C
Point de Rosée: 16°C
Humidité: 73%
Barometre: 1017 hPa
Visibilité: Supérieure à  10 km
2017/08/24 10:00 LFBH 241000Z AUTO 30005KT 250V340 CAVOK 21/16 Q1017 NOSIG
 
LFOV - Laval,Entrammes,(53)Mayenne
Mise à jour: Thu, 24-Aug-2017 12:00 CEST
Nuageux
Nuageux
 Wind from E
Vent: E 9 km/h
Température: 21°C
Point de Rosée: 12°C
Humidité: 57%
Barometre: 1019 hPa
Nuage: Nuageux
Visibilité: 10 km
2017/08/24 10:00 LFOV 241000Z AUTO 08005KT 040V110 9999 BKN036 21/12 Q1019
LFRJ - Landivisiau,(29)Finistère
Mise à jour: Thu, 24-Aug-2017 12:00 CEST
Nuageux
Nuageux
 Wind from WNW
Vent: WNW 6 km/h
Température: 19°C
Point de Rosée: 12°C
Humidité: 64%
Barometre: 1019 hPa
Nuage: Nuageux
Visibilité: 10 km
2017/08/24 10:00 LFRJ 241000Z AUTO 30003KT 190V360 9999 FEW022 BKN033 BKN039 19/12 Q1019
LFRO - Lannion,Servel,(22)Côtes-d Armor
Mise à jour: Thu, 24-Aug-2017 12:00 CEST
Quelques nuages
Quelques nuages
 Wind from W
Vent: W 6 km/h
Température: 19°C
Point de Rosée: 12°C
Humidité: 64%
Barometre: 1019 hPa
Nuage: Quelques nuages
Visibilité: 10 km
2017/08/24 10:00 LFRO 241000Z AUTO 28003KT 210V010 9999 FEW024 19/12 Q1019 NOSIG
 
LFRL - Lanveoc Poulmic,(29)Finistère
Mise à jour: Thu, 24-Aug-2017 12:00 CEST
Partiellement nuageux
Partiellement nuageux
 Wind from varies
Vent: varies 4 km/h
Température: 19°C
Point de Rosée: 13°C
Humidité: 68%
Barometre: 1019 hPa
Nuage: Partiellement nuageux
Visibilité: 10 km
2017/08/24 10:00 LFRL 241000Z AUTO VRB02KT 9999 SCT017 SCT220 19/13 Q1019 NOSIG
TFFF - Le Lamentin,(972)Martinique
Mise à jour: Thu, 24-Aug-2017 12:00 CEST
Nuageux
Nuageux
 Wind from E
Vent: E 6 km/h
Température: 27°C
Humidex: 31°C
Point de Rosée: 25°C
Humidité: 89%
Barometre: 1012 hPa
Nuage: Nuageux
Visibilité: 10 km
2017/08/24 10:00 TFFF 241000Z AUTO 10003KT 9999 FEW049 BKN062 27/25 Q1012 NOSIG
LFMC - Le Luc,(83)Var
Mise à jour: Thu, 24-Aug-2017 12:00 CEST

 Wind from varies
Vent: varies 4 km/h
Température: 28°C
Humidex: 29°C
Point de Rosée: 18°C
Humidité: 55%
Barometre: 1019 hPa
Visibilité: 10 km
2017/08/24 10:00 LFMC 241000Z AUTO VRB02KT 9999 ////// 28/18 Q1019
 
LFRM - Le Mans,(72)Sarthe
Mise à jour: Thu, 24-Aug-2017 12:00 CEST
Nuageux
Nuageux
 Wind from E
Vent: E 11 km/h
Température: 21°C
Point de Rosée: 14°C
Humidité: 64%
Barometre: 1018 hPa
Nuage: Nuageux
Visibilité: 10 km
2017/08/24 10:00 LFRM 241000Z AUTO 08006KT 030V110 9999 SCT028 BKN035 21/14 Q1018 NOSIG
LFAT - Le Touquet,(62)Pas-de-Calais
Mise à jour: Thu, 24-Aug-2017 12:00 CEST
Couvert
Couvert
 Wind from W
Vent: W 13 km/h
Température: 19°C
Point de Rosée: 15°C
Humidité: 78%
Barometre: 1018 hPa
Nuage: Couvert
Visibilité: 10 km
2017/08/24 10:00 LFAT 241000Z AUTO 26007KT 230V300 9999 BKN017 BKN024 OVC050 19/15 Q1018 NOSIG
LFQQ - Lille,(59)Nord
Mise à jour: Thu, 24-Aug-2017 12:00 CEST
Nuageux
Nuageux
 Wind from W
Vent: W 9 km/h
Température: 21°C
Point de Rosée: 13°C
Humidité: 60%
Barometre: 1017 hPa
Nuage: Nuageux
Visibilité: 10 km
2017/08/24 10:00 LFQQ 241000Z AUTO 27005KT 180V300 9999 SCT028 SCT033 BKN110 21/13 Q1017 NOSIG
 
LFRH - Lorient/Lann Bih,(56)Morbihan
Mise à jour: Thu, 24-Aug-2017 12:00 CEST
Claire
Claire
 Wind from NE
Vent: NE 9 km/h
Température: 21°C
Point de Rosée: 12°C
Humidité: 57%
Barometre: 1019 hPa
Visibilité: Supérieure à  10 km
2017/08/24 10:00 LFRH 241000Z AUTO 05005KT 010V140 CAVOK 21/12 Q1019 BECMG 26010KT
LFBL - Limoges,(87)Haute-Vienne
Mise à jour: Thu, 24-Aug-2017 12:00 CEST
Claire
Claire
 Wind from varies
Vent: varies 6 km/h
Température: 26°C
Point de Rosée: 17°C
Humidité: 58%
Barometre: 1018 hPa
Visibilité: Supérieure à  10 km
2017/08/24 10:00 LFBL 241000Z AUTO VRB03KT CAVOK 26/17 Q1018 NOSIG
LFSX - Luxeuil-les-Bains,(70)Haute-Saône
Mise à jour: Thu, 24-Aug-2017 12:00 CEST
Partiellement nuageux
Partiellement nuageux
 Wind from varies
Vent: varies 4 km/h
Température: 24°C
Point de Rosée: 17°C
Humidité: 65%
Barometre: 1018 hPa
Nuage: Partiellement nuageux
Visibilité: 10 km
2017/08/24 10:00 LFSX 241000Z AUTO VRB02KT 9999 SCT026 24/17 Q1018 NOSIG
 
LFLY - Lyon,Bron,(69) Rhône
Mise à jour: Thu, 24-Aug-2017 12:00 CEST
Orageux
Orageux
 Wind from SE
Vent: SE 7 km/h
Température: 23°C
Point de Rosée: 20°C
Humidité: 83%
Barometre: 1019 hPa
Nuage: Orageux
Visibilité: 10 km
2017/08/24 10:00 LFLY 241000Z AUTO 14004KT 100V190 9999 ///TCU 23/20 Q1019 TEMPO VRB15G25KT -TSRA SCT050 BKN070CB
LFLL - Lyon,Satolas,(69) Rhône
Mise à jour: Thu, 24-Aug-2017 12:00 CEST
Nuageux
Nuageux
 Wind from SE
Vent: SE 6 km/h
Température: 22°C
Point de Rosée: 18°C
Humidité: 78%
Barometre: 1019 hPa
Nuage: Nuageux
Visibilité: 10 km
2017/08/24 10:00 LFLL 241000Z 14003KT 9999 FEW073CB BKN120 22/18 Q1019 RETSRA NOSIG
LFJR - Marcé,(49) Maine-et-Loire
Mise à jour: Thu, 24-Aug-2017 12:00 CEST
Claire
Claire
 Wind from NE
Vent: NE 9 km/h
Température: 22°C
Point de Rosée: 16°C
Humidité: 69%
Barometre: 1018 hPa
Visibilité: Supérieure à  10 km
2017/08/24 10:00 LFJR 241000Z AUTO 05005KT 340V100 CAVOK 22/16 Q1018 NOSIG
 
LFML - Marseille, Marignane,(13)Bouches-du-Rhône
Mise à jour: Thu, 24-Aug-2017 12:00 CEST
Claire
Claire
 Wind from varies
Vent: varies 6 km/h
Température: 26°C
Point de Rosée: 18°C
Humidité: 61%
Barometre: 1019 hPa
Visibilité: Supérieure à  10 km
2017/08/24 10:00 LFML 241000Z AUTO VRB03KT CAVOK 26/18 Q1019 NOSIG
SOCA - Matury,(973)Guyane
Mise à jour: Thu, 24-Aug-2017 12:00 CEST
Quelques nuages
Quelques nuages
 Wind from varies
Vent: varies 2 km/h
Température: 23°C
Point de Rosée: 23°C
Humidité: 100%
Barometre: 1011 hPa
Nuage: Quelques nuages
Visibilité: 10 km
2017/08/24 10:00 SOCA 241000Z AUTO VRB01KT 9999 FEW022 23/23 Q1011 NOSIG
LFPM - Melun,(77)Seine-et-Marne
Mise à jour: Thu, 24-Aug-2017 12:00 CEST
Couvert
Couvert
 Wind from calm
Vent: Calm
Température: 20°C
Point de Rosée: 12°C
Humidité: 60%
Barometre: 1019 hPa
Nuage: Couvert
Visibilité: 10 km
2017/08/24 10:00 LFPM 241000Z AUTO 00000KT 9999 OVC045 20/12 Q1019
 
LFJL - Metz-Nancy-Lorraine,(57)Moselle
Mise à jour: Thu, 24-Aug-2017 12:00 CEST
Claire
Claire
 Wind from WSW
Vent: WSW 9 km/h
Température: 20°C
Point de Rosée: 11°C
Humidité: 56%
Barometre: 1019 hPa
Nuage: Claire
Visibilité: 10 km
2017/08/24 10:00 LFJL 241000Z AUTO 24005KT 200V290 9999 NCD 20/11 Q1019 NOSIG
LFBM - Mont-De-Marsan,(40)Landes
Mise à jour: Thu, 24-Aug-2017 12:00 CEST
Claire
Claire
 Wind from varies
Vent: varies 6 km/h
Température: 24°C
Point de Rosée: 18°C
Humidité: 69%
Barometre: 1016 hPa
Visibilité: Supérieure à  10 km
2017/08/24 10:00 LFBM 241000Z AUTO VRB03KT CAVOK 24/18 Q1016 NOSIG
LFMT - Montpellier,(34)Hérault
Mise à jour: Thu, 24-Aug-2017 12:00 CEST
Couvert
Couvert
 Wind from ESE
Vent: ESE 19 km/h
Température: 24°C
Point de Rosée: 21°C
Humidité: 83%
Barometre: 1018 hPa
Nuage: Couvert
Visibilité: 10 km
2017/08/24 10:00 LFMT 241000Z AUTO 12010KT 9999 OVC012 24/21 Q1018 BECMG SCT008
 
LFRU - Morlaix Ploujean,(29)Finistère
Mise à jour: Thu, 24-Aug-2017 12:00 CEST
Claire
Claire
 Wind from varies
Vent: varies 6 km/h
Température: 19°C
Point de Rosée: 12°C
Humidité: 64%
Barometre: 1019 hPa
Visibilité: Supérieure à  10 km
2017/08/24 10:00 LFRU 241000Z AUTO VRB03KT CAVOK 19/12 Q1019
LFSN - Nancy,Essey,(54)Meurthe-et-Moselle
Mise à jour: Thu, 24-Aug-2017 12:00 CEST
Claire
Claire
 Wind from NW
Vent: NW 7 km/h
Température: 23°C
Point de Rosée: 13°C
Humidité: 53%
Barometre: 1019 hPa
Visibilité: Supérieure à  10 km
2017/08/24 10:00 LFSN 241000Z AUTO 32004KT 280V360 CAVOK 23/13 Q1019
LFSO - Nancy , Ochey,(54)Meurthe-et-Moselle
Mise à jour: Thu, 24-Aug-2017 12:00 CEST
Claire
Claire
 Wind from NNW
Vent: NNW 9 km/h
Température: 22°C
Point de Rosée: 14°C
Humidité: 61%
Barometre: 1019 hPa
Visibilité: Supérieure à  10 km
2017/08/24 10:00 LFSO 241000Z AUTO 33005KT 290V360 CAVOK 22/14 Q1019 NOSIG
 
LFRS - Nantes,(44)Loire-Atlantique
Mise à jour: Thu, 24-Aug-2017 12:00 CEST
Claire
Claire
 Wind from ENE
Vent: ENE 15 km/h
Température: 22°C
Point de Rosée: 15°C
Humidité: 65%
Barometre: 1017 hPa
Visibilité: Supérieure à  10 km
2017/08/24 10:00 LFRS 241000Z AUTO 06008KT 020V110 CAVOK 22/15 Q1017 NOSIG
LFQG - Nevers,Fourchamb,(58)Nièvre
Mise à jour: Thu, 24-Aug-2017 12:00 CEST
Claire
Claire
 Wind from varies
Vent: varies 6 km/h
Température: 25°C
Point de Rosée: 20°C
Humidité: 74%
Barometre: 1018 hPa
Visibilité: Supérieure à  10 km
2017/08/24 10:00 LFQG 241000Z AUTO VRB03KT CAVOK 25/20 Q1018
LFMN - Nice,(06)Alpes-Maritimes
Mise à jour: Thu, 24-Aug-2017 12:00 CEST
Nuageux
Nuageux
 Wind from ESE
Vent: ESE 11 km/h
Température: 26°C
Point de Rosée: 19°C
Humidité: 65%
Barometre: 1019 hPa
Nuage: Nuageux
Visibilité: 10 km
2017/08/24 10:00 LFMN 241000Z 11006KT 9999 FEW020 BKN230 26/19 Q1019 NOSIG
 
LFTW - Nimes, Garons,(30) Gard
Mise à jour: Thu, 24-Aug-2017 12:00 CEST
Quelques nuages
Quelques nuages
 Wind from SE
Vent: SE 17 km/h
Température: 26°C
Point de Rosée: 20°C
Humidité: 70%
Barometre: 1019 hPa
Nuage: Quelques nuages
Visibilité: 10 km
2017/08/24 10:00 LFTW 241000Z AUTO 13009KT 090V170 9999 FEW013 26/20 Q1019 BECMG OVC011
LFMO - Orange,(84)Vaucluse
Mise à jour: Thu, 24-Aug-2017 12:00 CEST
Orageux
Orageux
 Wind from W
Vent: W 6 km/h
Température: 24°C
Point de Rosée: 19°C
Humidité: 74%
Barometre: 1019 hPa
Nuage: Orageux
Visibilité: 10 km
2017/08/24 10:00 LFMO 241000Z AUTO 26003KT 230V290 9999 FEW035/// SCT064/// BKN120/// ///TCU 24/19 Q1019 TEMPO 4000 SHRA
LFOJ - Orleans,(45)Loiret
Mise à jour: Thu, 24-Aug-2017 12:00 CEST
Nuageux
Nuageux
 Wind from E
Vent: E 11 km/h
Température: 21°C
Point de Rosée: 14°C
Humidité: 64%
Barometre: 1018 hPa
Nuage: Nuageux
Visibilité: 10 km
2017/08/24 10:00 LFOJ 241000Z AUTO 08006KT 040V120 9999 SCT046 BKN140 21/14 Q1018 NOSIG
 
LFPB - Paris ,Le Bourget,(93)Seine-Saint-Denis
Mise à jour: Thu, 24-Aug-2017 12:00 CEST
Couvert
Couvert
 Wind from varies
Vent: varies 4 km/h
Température: 21°C
Point de Rosée: 13°C
Humidité: 60%
Barometre: 1019 hPa
Nuage: Couvert
Visibilité: 10 km
2017/08/24 10:00 LFPB 241000Z AUTO VRB02KT 9999 FEW029 SCT047 OVC140 21/13 Q1019 NOSIG
LFPG - Paris, Charles De Gaulle,(95)Val-d Oise
Mise à jour: Thu, 24-Aug-2017 12:00 CEST
Nuageux
Nuageux
 Wind from SSE
Vent: SSE 9 km/h
Température: 19°C
Point de Rosée: 14°C
Humidité: 73%
Barometre: 1019 hPa
Nuage: Nuageux
Visibilité: 10 km
2017/08/24 10:00 LFPG 241000Z 15005KT 070V210 9999 FEW020 BKN042 19/14 Q1019 NOSIG
LFPO - Paris-Orly,(94)Val-de-Marne
Mise à jour: Thu, 24-Aug-2017 12:00 CEST
Nuageux
Nuageux
 Wind from varies
Vent: varies 4 km/h
Température: 19°C
Point de Rosée: 13°C
Humidité: 68%
Barometre: 1019 hPa
Nuage: Nuageux
Visibilité: 10 km
2017/08/24 10:00 LFPO 241000Z VRB02KT 9999 FEW030 BKN040 19/13 Q1019 NOSIG
 
LFBP - Pau,(64)Pyrénées-Atlantiques
Mise à jour: Thu, 24-Aug-2017 12:00 CEST
Couvert
Couvert
 Wind from varies
Vent: varies 4 km/h
Température: 23°C
Point de Rosée: 18°C
Humidité: 74%
Barometre: 1017 hPa
Nuage: Couvert
Visibilité: 10 km
2017/08/24 10:00 LFBP 241000Z AUTO VRB02KT 9999 OVC018 23/18 Q1017 NOSIG
LFMP - Perpignan,(66)Pyrénées-Orientales
Mise à jour: Thu, 24-Aug-2017 12:00 CEST
Nuageux
Nuageux
 Wind from NE
Vent: NE 15 km/h
Température: 26°C
Point de Rosée: 20°C
Humidité: 70%
Barometre: 1018 hPa
Nuage: Nuageux
Visibilité: 10 km
2017/08/24 10:00 LFMP 241000Z AUTO 05008KT 360V130 9999 BKN016 BKN021 BKN026 26/20 Q1018 TEMPO BKN013
LFBI - Poitiers,(86)Vienne
Mise à jour: Thu, 24-Aug-2017 12:00 CEST
Claire
Claire
 Wind from varies
Vent: varies 2 km/h
Température: 25°C
Point de Rosée: 17°C
Humidité: 61%
Barometre: 1017 hPa
Visibilité: Supérieure à  10 km
2017/08/24 10:00 LFBI 241000Z AUTO VRB01KT CAVOK 25/17 Q1017 NOSIG
 
LFBP - Pont-Long-Uzein,(64)Pyrénées-Atlantiques
Mise à jour: Thu, 24-Aug-2017 12:00 CEST
Couvert
Couvert
 Wind from varies
Vent: varies 4 km/h
Température: 23°C
Point de Rosée: 18°C
Humidité: 74%
Barometre: 1017 hPa
Nuage: Couvert
Visibilité: 10 km
2017/08/24 10:00 LFBP 241000Z AUTO VRB02KT 9999 OVC018 23/18 Q1017 NOSIG
TFFR - Point à Pitre,(971)Guadeloupe
Mise à jour: Thu, 24-Aug-2017 12:00 CEST
Claire
Claire
 Wind from ESE
Vent: ESE 4 km/h
Température: 25°C
Point de Rosée: 25°C
Humidité: 100%
Barometre: 1013 hPa
Visibilité: Supérieure à  10 km
2017/08/24 10:00 TFFR 241000Z AUTO 12002KT CAVOK 25/25 Q1013 TEMPO 4000 SHRA SCT030TCU
LFRQ - Quimper,(29)Finistère
Mise à jour: Thu, 24-Aug-2017 12:00 CEST
Claire
Claire
 Wind from ENE
Vent: ENE 6 km/h
Température: 19°C
Point de Rosée: 13°C
Humidité: 68%
Barometre: 1019 hPa
Visibilité: Supérieure à  10 km
2017/08/24 10:00 LFRQ 241000Z AUTO 06003KT 030V110 CAVOK 19/13 Q1019 NOSIG
 
LFQA - Reims,Prunay,(51)Marne
Mise à jour: Thu, 24-Aug-2017 12:00 CEST
Nuageux
Nuageux
 Wind from varies
Vent: varies 2 km/h
Température: 20°C
Point de Rosée: 14°C
Humidité: 69%
Barometre: 1019 hPa
Nuage: Nuageux
Visibilité: 10 km
2017/08/24 10:00 LFQA 241000Z AUTO VRB01KT 9999 BKN023 20/14 Q1019
LFRN - Rennes,(35)Ille-et-Vilaine
Mise à jour: Thu, 24-Aug-2017 12:00 CEST
Nuageux
Nuageux
 Wind from NNE
Vent: NNE 9 km/h
Température: 21°C
Point de Rosée: 14°C
Humidité: 64%
Barometre: 1018 hPa
Nuage: Nuageux
Visibilité: 10 km
2017/08/24 10:00 LFRN 241000Z AUTO 03005KT 330V140 9999 SCT026 BKN036 21/14 Q1018 NOSIG
LFCR - Rodez,(12)Aveyron
Mise à jour: Thu, 24-Aug-2017 12:00 CEST
Claire
Claire
 Wind from S
Vent: S 13 km/h
Température: 28°C
Humidex: 28°C
Point de Rosée: 15°C
Humidité: 45%
Barometre: 1019 hPa
Visibilité: Supérieure à  10 km
2017/08/24 10:00 LFCR 241000Z AUTO 17007KT 110V210 CAVOK 28/15 Q1019 NOSIG
 
LFYR - Romorantin,(41)Loir-et-Cher
Mise à jour: Thu, 24-Aug-2017 12:00 CEST
Claire
Claire
 Wind from NE
Vent: NE 6 km/h
Température: 24°C
Point de Rosée: 18°C
Humidité: 69%
Barometre: 1017 hPa
Visibilité: Supérieure à  10 km
2017/08/24 10:00 LFYR 241000Z AUTO 05003KT 330V110 CAVOK 24/18 Q1017 NOSIG
LFOP - Rouen,(76)Seine-Maritime
Mise à jour: Thu, 24-Aug-2017 12:00 CEST
Nuageux
Nuageux
 Wind from varies
Vent: varies 4 km/h
Température: 19°C
Point de Rosée: 13°C
Humidité: 68%
Barometre: 1019 hPa
Nuage: Nuageux
Visibilité: 10 km
2017/08/24 10:00 LFOP 241000Z AUTO VRB02KT 9999 BKN021 19/13 Q1019 NOSIG
LFRT - Saint-Brieuc,(22)Côtes-d Armor
Mise à jour: Thu, 24-Aug-2017 12:00 CEST
Partiellement nuageux
Partiellement nuageux
 Wind from varies
Vent: varies 4 km/h
Température: 18°C
Point de Rosée: 13°C
Humidité: 73%
Barometre: 1019 hPa
Nuage: Partiellement nuageux
Visibilité: 10 km
2017/08/24 10:00 LFRT 241000Z AUTO VRB02KT 9999 SCT032 18/13 Q1019
 
FMEE - Saint-Denis,(974)Réunion
Mise à jour: Thu, 24-Aug-2017 12:00 CEST
Quelques nuages
Quelques nuages
 Wind from E
Vent: E 31 km/h
Température: 27°C
Humidex: 28°C
Point de Rosée: 19°C
Humidité: 62%
Barometre: 1016 hPa
Nuage: Quelques nuages
Visibilité: 10 km
2017/08/24 10:00 FMEE 241000Z 08017KT 9999 FEW030 27/19 Q1016 NOSIG
LFLN - Saint-Yan,(71)Saône-et-Loire
Mise à jour: Thu, 24-Aug-2017 12:00 CEST
Claire
Claire
 Wind from E
Vent: E 7 km/h
Température: 24°C
Point de Rosée: 18°C
Humidité: 69%
Barometre: 1018 hPa
Visibilité: Supérieure à  10 km
2017/08/24 10:00 LFLN 241000Z AUTO 09004KT 050V140 CAVOK 24/18 Q1018 NOSIG
LFMY - Salon-de-Provence,(13)Bouches-du-Rhône
Mise à jour: Thu, 24-Aug-2017 12:00 CEST
Claire
Claire
 Wind from ESE
Vent: ESE 6 km/h
Température: 26°C
Point de Rosée: 18°C
Humidité: 61%
Barometre: 1019 hPa
Visibilité: Supérieure à  10 km
2017/08/24 10:00 LFMY 241000Z AUTO 11003KT 040V200 CAVOK 26/18 Q1019 NOSIG
 
LFKS - Solenzara,(2A)Corse-du-Sud
Mise à jour: Thu, 24-Aug-2017 12:00 CEST
Claire
Claire
 Wind from E
Vent: E 13 km/h
Température: 27°C
Humidex: 29°C
Point de Rosée: 21°C
Humidité: 70%
Barometre: 1020 hPa
Visibilité: Supérieure à  10 km
2017/08/24 10:00 LFKS 241000Z AUTO 09007KT 050V140 CAVOK 27/21 Q1020
LFSI - St-Dizier,(52)Haute-Marne
Mise à jour: Thu, 24-Aug-2017 12:00 CEST
Claire
Claire
 Wind from varies
Vent: varies 4 km/h
Température: 22°C
Point de Rosée: 13°C
Humidité: 57%
Barometre: 1019 hPa
Visibilité: Supérieure à  10 km
2017/08/24 10:00 LFSI 241000Z AUTO VRB02KT CAVOK 22/13 Q1019
LFMH - St-Etienne Boutheon,(42) Loire
Mise à jour: Thu, 24-Aug-2017 12:00 CEST
Claire
Claire
 Wind from SSE
Vent: SSE 13 km/h
Température: 25°C
Point de Rosée: 18°C
Humidité: 65%
Barometre: 1019 hPa
Visibilité: Supérieure à  10 km
2017/08/24 10:00 LFMH 241000Z AUTO 15007KT CAVOK 25/18 Q1019 NOSIG
 
LFVP - St-Pierre et Miquelon,(975)Outre-mer
Mise à jour: Thu, 24-Aug-2017 12:00 CEST
Quelques nuages
Quelques nuages
 Wind from SSW
Vent: SSW 30 km/h
Température: 18°C
Point de Rosée: 18°C
Humidité: 100%
Barometre: 1013 hPa
Nuage: Quelques nuages
Visibilité: 8 km
2017/08/24 10:00 LFVP 241000Z 20016KT 8000 FEW004 18/18 Q1013 NOSIG
LFRZ - St-Nazaire,(44)Loire-Atlantique
Mise à jour: Thu, 24-Aug-2017 12:00 CEST
Claire
Claire
 Wind from NNE
Vent: NNE 13 km/h
Température: 21°C
Point de Rosée: 14°C
Humidité: 64%
Barometre: 1018 hPa
Visibilité: Supérieure à  10 km
2017/08/24 10:00 LFRZ 241000Z AUTO 03007KT 350V060 CAVOK 21/14 Q1018 NOSIG
LFST - Strasbourg,(67)Bas-Rhin
Mise à jour: Thu, 24-Aug-2017 12:00 CEST
Quelques nuages
Quelques nuages
 Wind from varies
Vent: varies 7 km/h
Température: 27°C
Humidex: 28°C
Point de Rosée: 17°C
Humidité: 54%
Barometre: 1018 hPa
Nuage: Quelques nuages
Visibilité: 10 km
2017/08/24 10:00 LFST 241000Z AUTO VRB04KT 9999 FEW037 27/17 Q1018 NOSIG
 
LFBT - Tarbes, Ossun,(65)Hautes-Pyrénées
Mise à jour: Thu, 24-Aug-2017 12:00 CEST
Claire
Claire
 Wind from NNW
Vent: NNW 6 km/h
Température: 23°C
Point de Rosée: 18°C
Humidité: 74%
Barometre: 1017 hPa
Visibilité: Supérieure à  10 km
2017/08/24 10:00 LFBT 241000Z AUTO 34003KT 280V040 CAVOK 23/18 Q1017 BECMG BKN014
LFBO - Toulouse,Blagnac,(31)Haute-Garonne
Mise à jour: Thu, 24-Aug-2017 12:00 CEST

 Wind from SE
Vent: SE 17 km/h
2017/08/24 10:00 LFBO 241000Z AUTO 13009KT 090V170 //// R14R///// R32L///// R14L///// R32R///// // ////// 27/18 Q1017
LFOT - Tours,(37)Indre-et-Loire
Mise à jour: Thu, 24-Aug-2017 12:00 CEST
Partiellement nuageux
Partiellement nuageux
 Wind from ENE
Vent: ENE 9 km/h
Température: 23°C
Point de Rosée: 17°C
Humidité: 69%
Barometre: 1018 hPa
Nuage: Partiellement nuageux
Visibilité: 10 km
2017/08/24 10:00 LFOT 241000Z AUTO 06005KT 360V100 9999 SCT041 23/17 Q1018 BECMG 20010KT
 
LFPN - Toussus Le Noble,(78)Yvelines
Mise à jour: Thu, 24-Aug-2017 12:00 CEST
Nuageux
Nuageux
 Wind from varies
Vent: varies 6 km/h
Température: 20°C
Point de Rosée: 14°C
Humidité: 69%
Barometre: 1019 hPa
Nuage: Nuageux
Visibilité: 10 km
2017/08/24 10:00 LFPN 241000Z AUTO VRB03KT 9999 BKN044 BKN052 BKN140 20/14 Q1019 NOSIG
LFQB - Troyes,Barberey,(10)Aube
Mise à jour: Thu, 24-Aug-2017 12:00 CEST
Claire
Claire
 Wind from varies
Vent: varies 4 km/h
Température: 23°C
Point de Rosée: 14°C
Humidité: 57%
Barometre: 1019 hPa
Visibilité: Supérieure à  10 km
2017/08/24 10:00 LFQB 241000Z AUTO VRB02KT CAVOK 23/14 Q1019
LFLU - VALENCE Chabeuil,(26)Drôme
Mise à jour: Thu, 24-Aug-2017 12:00 CEST
Claire
Claire
 Wind from SSW
Vent: SSW 13 km/h
Température: 25°C
Point de Rosée: 19°C
Humidité: 69%
Barometre: 1018 hPa
Visibilité: Supérieure à  10 km
2017/08/24 10:00 LFLU 241000Z AUTO 21007KT 160V250 CAVOK 25/19 Q1018
 
LFRV - Vannes,Meucon,(56)Morbihan
Mise à jour: Thu, 24-Aug-2017 12:00 CEST
Quelques nuages
Quelques nuages
 Wind from NNE
Vent: NNE 11 km/h
Température: 19°C
Point de Rosée: 14°C
Humidité: 73%
Barometre: 1018 hPa
Nuage: Quelques nuages
Visibilité: 10 km
2017/08/24 10:00 LFRV 241000Z AUTO 02006KT 330V070 9999 FEW023 19/14 Q1018
LFPV - Villacoublay,(78)Yvelines
Mise à jour: Thu, 24-Aug-2017 12:00 CEST
Couvert
Couvert
 Wind from varies
Vent: varies 2 km/h
Température: 19°C
Point de Rosée: 14°C
Humidité: 73%
Barometre: 1019 hPa
Nuage: Couvert
Visibilité: 10 km
2017/08/24 10:00 LFPV 241000Z AUTO VRB01KT 9999 BKN043 OVC140 19/14 Q1019 NOSIG

Metar display script from Saratoga-Weather.org